createdAt,value
2022-12-08T00:01:09.777Z,2.52
2022-12-08T00:03:36.910Z,2.52
2022-12-08T00:06:23.999Z,2.47
2022-12-08T00:09:09.276Z,2.40
2022-12-08T00:11:37.788Z,2.33
2022-12-08T00:14:04.388Z,2.35
2022-12-08T00:16:30.851Z,2.31
2022-12-08T00:18:57.248Z,2.35
2022-12-08T00:21:23.625Z,2.36
2022-12-08T00:23:50.040Z,2.30
2022-12-08T00:26:20.321Z,2.32
2022-12-08T00:28:47.480Z,2.30
2022-12-08T00:31:13.839Z,2.38
2022-12-08T00:33:40.289Z,2.46
2022-12-08T00:36:12.734Z,2.51
2022-12-08T00:38:39.788Z,2.53
2022-12-08T00:41:14.279Z,2.55
2022-12-08T00:43:40.723Z,2.54
2022-12-08T00:46:07.271Z,2.53
2022-12-08T00:48:33.720Z,2.51
2022-12-08T00:51:00.225Z,2.53
2022-12-08T00:53:26.589Z,2.49
2022-12-08T00:55:53.071Z,2.52
2022-12-08T00:58:19.450Z,2.55
2022-12-08T01:00:45.947Z,2.55
2022-12-08T01:03:12.788Z,2.56
2022-12-08T01:05:39.512Z,2.50
2022-12-08T01:08:07.656Z,2.46
2022-12-08T01:10:37.993Z,2.38
2022-12-08T01:13:04.562Z,2.41
2022-12-08T01:15:30.975Z,2.36
2022-12-08T01:17:57.476Z,2.32
2022-12-08T01:20:23.880Z,2.32
2022-12-08T01:22:50.243Z,2.28
2022-12-08T01:25:16.673Z,2.21
2022-12-08T01:27:43.102Z,2.22
2022-12-08T01:30:10.182Z,2.10
2022-12-08T01:32:36.860Z,2.08
2022-12-08T01:35:03.860Z,2.07
2022-12-08T01:37:30.430Z,2.03
2022-12-08T01:40:03.743Z,2.14
2022-12-08T01:42:32.383Z,2.17
2022-12-08T01:45:02.862Z,2.20
2022-12-08T01:47:37.544Z,2.19
2022-12-08T01:50:08.683Z,2.21
2022-12-08T01:52:46.978Z,2.27
2022-12-08T01:55:19.691Z,2.32
2022-12-08T01:58:00.672Z,2.32
2022-12-08T02:00:27.154Z,2.26
2022-12-08T02:03:04.603Z,2.23
2022-12-08T02:05:36.108Z,2.20
2022-12-08T02:08:07.022Z,2.10
2022-12-08T02:10:35.245Z,2.05
2022-12-08T02:13:04.570Z,2.05
2022-12-08T02:15:49.204Z,1.99
2022-12-08T02:18:27.002Z,1.88
2022-12-08T02:21:03.802Z,1.87
2022-12-08T02:23:49.158Z,1.83
2022-12-08T02:26:24.796Z,1.80
2022-12-08T02:29:02.175Z,1.76
2022-12-08T02:31:52.426Z,1.75
2022-12-08T02:34:48.372Z,1.74
2022-12-08T02:37:38.383Z,1.76
2022-12-08T02:40:33.886Z,1.71
2022-12-08T02:43:17.498Z,1.70
2022-12-08T02:45:50.320Z,1.78
2022-12-08T02:48:17.113Z,1.74
2022-12-08T02:50:43.878Z,1.79
2022-12-08T02:56:02.937Z,1.88
2022-12-08T02:58:57.365Z,1.92
2022-12-08T03:01:54.012Z,1.91
2022-12-08T03:04:35.017Z,1.94
2022-12-08T03:07:13.809Z,1.98
2022-12-08T03:09:48.791Z,1.99
2022-12-08T03:12:26.394Z,1.97
2022-12-08T03:14:55.282Z,2.02
2022-12-08T03:17:26.191Z,2.01
2022-12-08T03:19:54.489Z,1.98
2022-12-08T03:22:27.967Z,1.95
2022-12-08T03:24:56.438Z,1.92
2022-12-08T03:27:30.534Z,1.92
2022-12-08T03:29:59.018Z,1.95
2022-12-08T03:33:03.116Z,1.99
2022-12-08T03:35:33.069Z,1.98
2022-12-08T03:38:12.458Z,2.00
2022-12-08T03:40:39.769Z,1.99
2022-12-08T03:43:07.492Z,2.00
2022-12-08T03:45:34.526Z,1.99
2022-12-08T03:48:01.212Z,2.00
2022-12-08T03:50:27.820Z,2.01
2022-12-08T03:52:54.357Z,1.98
2022-12-08T03:55:21.554Z,1.97
2022-12-08T03:57:48.233Z,1.96
2022-12-08T04:00:16.417Z,1.92
2022-12-08T04:02:43.144Z,1.93
2022-12-08T04:05:09.970Z,1.86
2022-12-08T04:07:36.795Z,1.92
2022-12-08T04:10:04.439Z,1.86
2022-12-08T04:12:31.343Z,1.88
2022-12-08T04:14:57.958Z,1.84
2022-12-08T04:17:24.609Z,1.87
2022-12-08T04:19:51.265Z,1.95
2022-12-08T04:22:17.898Z,1.94
2022-12-08T04:24:44.661Z,1.99
2022-12-08T04:27:11.297Z,2.03
2022-12-08T04:29:43.788Z,2.02
2022-12-08T04:32:12.704Z,2.00
2022-12-08T04:34:39.743Z,2.02
2022-12-08T04:37:06.412Z,2.02
2022-12-08T04:39:33.045Z,2.02
2022-12-08T04:41:59.665Z,2.07
2022-12-08T04:44:28.755Z,2.02
2022-12-08T04:46:55.498Z,2.07
2022-12-08T04:49:22.258Z,2.07
2022-12-08T04:51:51.282Z,2.09
2022-12-08T04:54:17.949Z,2.13
2022-12-08T04:56:44.605Z,2.09
2022-12-08T04:59:11.120Z,2.11
2022-12-08T05:01:37.942Z,2.12
2022-12-08T05:04:04.886Z,2.14
2022-12-08T05:06:31.656Z,2.17
2022-12-08T05:08:58.396Z,2.18
2022-12-08T05:11:25.131Z,2.15
2022-12-08T05:14:02.245Z,2.17
2022-12-08T05:16:29.219Z,2.22
2022-12-08T05:18:55.891Z,2.15
2022-12-08T05:21:22.715Z,2.20
2022-12-08T05:23:49.344Z,2.20
2022-12-08T05:26:15.990Z,2.17
2022-12-08T05:28:43.577Z,2.17
2022-12-08T05:31:14.631Z,2.09
2022-12-08T05:33:41.852Z,1.95
2022-12-08T05:36:10.258Z,1.85
2022-12-08T05:38:37.678Z,1.81
2022-12-08T05:41:09.817Z,1.75
2022-12-08T05:43:39.704Z,1.72
2022-12-08T05:46:08.822Z,1.66
2022-12-08T05:48:46.561Z,1.65
2022-12-08T05:51:24.707Z,1.64
2022-12-08T05:53:53.505Z,1.63
2022-12-08T05:56:27.228Z,1.60
2022-12-08T05:59:01.934Z,1.55
2022-12-08T06:01:37.217Z,1.58
2022-12-08T06:04:04.775Z,1.58
2022-12-08T06:06:34.665Z,1.59
2022-12-08T06:09:07.671Z,1.61
2022-12-08T06:11:34.559Z,1.60
2022-12-08T06:14:01.978Z,1.63
2022-12-08T06:16:29.503Z,1.65
2022-12-08T06:18:57.367Z,1.62
2022-12-08T06:21:24.421Z,1.62
2022-12-08T06:23:53.955Z,1.64
2022-12-08T06:26:21.506Z,1.62
2022-12-08T06:28:59.929Z,1.64
2022-12-08T06:31:34.978Z,1.69
2022-12-08T06:34:01.719Z,1.70
2022-12-08T06:36:28.790Z,1.72
2022-12-08T06:38:56.586Z,1.74
2022-12-08T06:41:23.363Z,1.71
2022-12-08T06:43:50.472Z,1.71
2022-12-08T06:46:21.502Z,1.74
2022-12-08T06:48:51.017Z,1.80
2022-12-08T06:51:23.593Z,1.77
2022-12-08T06:53:50.633Z,1.76
2022-12-08T06:56:20.117Z,1.82
2022-12-08T06:58:52.431Z,1.72
2022-12-08T07:01:20.254Z,1.78
2022-12-08T07:03:50.830Z,1.81
2022-12-08T07:06:23.509Z,1.83
2022-12-08T07:08:50.468Z,1.83
2022-12-08T07:11:21.480Z,1.83
2022-12-08T07:13:49.403Z,1.84
2022-12-08T07:16:17.283Z,1.85
2022-12-08T07:18:44.454Z,1.85
2022-12-08T07:21:13.463Z,1.89
2022-12-08T07:23:40.781Z,1.88
2022-12-08T07:26:44.195Z,1.88
2022-12-08T07:29:13.798Z,1.89
2022-12-08T07:31:40.560Z,1.91
2022-12-08T07:34:07.533Z,1.97
2022-12-08T07:36:34.597Z,1.98
2022-12-08T07:39:01.438Z,2.00
2022-12-08T07:41:28.665Z,2.04
2022-12-08T07:43:58.339Z,2.02
2022-12-08T07:46:26.804Z,2.04
2022-12-08T07:48:54.690Z,2.08
2022-12-08T07:51:21.582Z,2.10
2022-12-08T07:53:54.693Z,2.16
2022-12-08T07:56:22.486Z,2.20
2022-12-08T07:58:49.316Z,2.05
2022-12-08T08:01:31.268Z,2.08
2022-12-08T08:04:02.733Z,2.20
2022-12-08T08:06:33.740Z,2.25
2022-12-08T08:09:00.770Z,2.21
2022-12-08T08:11:27.555Z,2.23
2022-12-08T08:13:54.254Z,2.26
2022-12-08T08:16:21.786Z,2.30
2022-12-08T08:18:50.218Z,2.30
2022-12-08T08:24:05.641Z,2.33
2022-12-08T08:26:32.599Z,2.38
2022-12-08T08:29:01.377Z,2.42
2022-12-08T08:31:29.743Z,2.41
2022-12-08T08:34:16.491Z,2.48
2022-12-08T08:36:54.871Z,2.53
2022-12-08T08:39:21.716Z,2.55
2022-12-08T08:41:48.754Z,2.64
2022-12-08T08:44:18.493Z,2.72
2022-12-08T08:46:45.453Z,2.60
2022-12-08T08:49:12.469Z,2.63
2022-12-08T08:51:40.131Z,2.64
2022-12-08T08:54:06.904Z,2.67
2022-12-08T08:56:36.578Z,2.67
2022-12-08T08:59:06.943Z,2.72
2022-12-08T09:01:34.391Z,2.76
2022-12-08T09:04:01.673Z,2.69
2022-12-08T09:06:30.648Z,2.64
2022-12-08T09:08:57.498Z,2.70
2022-12-08T09:11:24.212Z,2.70
2022-12-08T09:13:52.523Z,2.68
2022-12-08T09:16:20.037Z,2.73
2022-12-08T09:18:49.338Z,2.75
2022-12-08T09:21:22.603Z,2.78
2022-12-08T09:23:51.205Z,2.78
2022-12-08T09:26:18.276Z,2.84
2022-12-08T09:28:47.764Z,2.82
2022-12-08T09:31:14.905Z,2.80
2022-12-08T09:33:42.317Z,2.89
2022-12-08T09:36:11.270Z,3.01
2022-12-08T09:38:39.101Z,3.12
2022-12-08T09:41:44.853Z,3.04
2022-12-08T09:44:38.926Z,3.06
2022-12-08T09:47:09.263Z,3.15
2022-12-08T09:49:45.289Z,3.16
2022-12-08T09:52:23.553Z,3.19
2022-12-08T09:54:50.712Z,3.13
2022-12-08T09:57:20.556Z,3.13
2022-12-08T09:59:56.198Z,3.17
2022-12-08T10:02:25.831Z,3.23
2022-12-08T10:04:55.862Z,3.30
2022-12-08T10:07:22.494Z,3.31
2022-12-08T10:10:32.864Z,3.34
2022-12-08T10:13:21.812Z,3.27
2022-12-08T10:16:28.000Z,3.25
2022-12-08T10:19:07.903Z,3.24
2022-12-08T10:21:34.620Z,3.21
2022-12-08T10:24:13.538Z,3.18
2022-12-08T10:26:40.551Z,3.20
2022-12-08T10:29:13.207Z,3.21
2022-12-08T10:31:40.332Z,3.19
2022-12-08T10:34:26.165Z,3.22
2022-12-08T10:36:58.666Z,3.21
2022-12-08T10:39:32.559Z,3.24
2022-12-08T10:42:14.441Z,3.25
2022-12-08T10:45:15.938Z,3.28
2022-12-08T10:47:45.317Z,3.30
2022-12-08T10:50:30.425Z,3.36
2022-12-08T10:53:13.189Z,3.48
2022-12-08T10:55:43.448Z,3.44
2022-12-08T10:58:40.821Z,3.52
2022-12-08T11:01:47.217Z,3.58
2022-12-08T11:04:39.451Z,3.63
2022-12-08T11:07:08.722Z,3.60
2022-12-08T11:09:48.142Z,3.58
2022-12-08T11:12:16.841Z,3.45
2022-12-08T11:14:46.004Z,3.49
2022-12-08T11:17:36.088Z,3.54
2022-12-08T11:20:08.926Z,3.57
2022-12-08T11:22:41.527Z,3.55
2022-12-08T11:25:18.059Z,3.61
2022-12-08T11:27:48.464Z,3.65
2022-12-08T11:31:22.168Z,3.67
2022-12-08T11:33:55.470Z,3.69
2022-12-08T11:36:29.323Z,3.64
2022-12-08T11:39:00.009Z,3.64
2022-12-08T11:41:32.162Z,3.66
2022-12-08T11:44:05.057Z,3.63
2022-12-08T11:46:34.112Z,3.66
2022-12-08T11:49:13.524Z,3.68
2022-12-08T11:51:46.278Z,3.66
2022-12-08T11:54:40.566Z,3.66
2022-12-08T11:57:20.803Z,3.65
2022-12-08T11:59:54.509Z,3.63
2022-12-08T12:02:28.792Z,3.61
2022-12-08T12:08:37.508Z,3.59
2022-12-08T12:11:59.822Z,3.62
2022-12-08T12:14:46.945Z,3.64
2022-12-08T12:17:41.702Z,3.69
2022-12-08T12:20:32.243Z,3.67
2022-12-08T12:23:10.213Z,3.69
2022-12-08T12:25:37.723Z,3.62
2022-12-08T12:28:08.716Z,3.55
2022-12-08T12:30:59.239Z,3.58
2022-12-08T12:33:26.479Z,3.51
2022-12-08T12:35:57.622Z,3.48
2022-12-08T12:38:54.698Z,3.40
2022-12-08T12:41:43.503Z,3.42
2022-12-08T12:44:13.267Z,3.44
2022-12-08T12:46:45.999Z,3.39
2022-12-08T12:49:42.344Z,3.38
2022-12-08T12:52:15.200Z,3.48
2022-12-08T12:54:43.492Z,3.41
2022-12-08T12:57:13.120Z,3.45
2022-12-08T13:00:03.213Z,3.52
2022-12-08T13:02:49.297Z,3.50
2022-12-08T13:05:28.745Z,3.58
2022-12-08T13:07:57.947Z,3.62
2022-12-08T13:10:34.382Z,3.67
2022-12-08T13:13:21.483Z,3.67
2022-12-08T13:16:05.528Z,3.65
2022-12-08T13:18:51.958Z,3.68
2022-12-08T13:21:23.837Z,3.69
2022-12-08T13:24:10.565Z,3.69
2022-12-08T13:27:03.638Z,3.79
2022-12-08T13:29:35.244Z,3.83
2022-12-08T13:32:09.876Z,3.87
2022-12-08T13:34:51.961Z,3.83
2022-12-08T13:37:50.764Z,3.88
2022-12-08T13:40:30.373Z,3.92
2022-12-08T13:43:13.007Z,3.88
2022-12-08T13:55:53.672Z,3.97
2022-12-08T13:57:39.514Z,3.92
2022-12-08T14:00:15.387Z,3.83
2022-12-08T14:02:48.159Z,3.78
2022-12-08T14:05:34.578Z,3.70
2022-12-08T14:08:30.108Z,3.64
2022-12-08T14:11:08.153Z,3.65
2022-12-08T14:13:35.145Z,3.62
2022-12-08T14:16:02.388Z,3.59
2022-12-08T14:18:31.619Z,3.43
2022-12-08T14:21:20.775Z,3.50
2022-12-08T14:23:47.815Z,3.47
2022-12-08T14:26:14.662Z,3.41
2022-12-08T14:28:45.296Z,3.41
2022-12-08T14:31:14.436Z,3.38
2022-12-08T14:33:41.440Z,3.38
2022-12-08T14:36:09.935Z,3.44
2022-12-08T14:38:36.769Z,3.43
2022-12-08T14:41:04.996Z,3.42
2022-12-08T14:43:35.197Z,3.41
2022-12-08T14:46:07.152Z,3.40
2022-12-08T14:48:42.360Z,3.30
2022-12-08T14:51:15.679Z,3.30
2022-12-08T14:53:52.362Z,3.34
2022-12-08T14:56:39.134Z,3.32
2022-12-08T14:59:22.773Z,3.30
2022-12-08T15:01:53.463Z,3.29
2022-12-08T15:04:23.926Z,3.32
2022-12-08T15:07:13.906Z,3.34
2022-12-08T15:09:43.531Z,3.30
2022-12-08T15:12:15.108Z,3.28
2022-12-08T15:14:54.561Z,3.20
2022-12-08T15:17:34.635Z,3.25
2022-12-08T15:20:04.241Z,3.24
2022-12-08T15:22:31.677Z,3.22
2022-12-08T15:25:01.609Z,3.24
2022-12-08T15:27:28.332Z,3.25
2022-12-08T15:29:54.953Z,3.25
2022-12-08T15:32:23.434Z,3.22
2022-12-08T15:34:52.883Z,3.20
2022-12-08T15:37:22.501Z,3.22
2022-12-08T15:39:50.048Z,3.20
2022-12-08T15:42:21.670Z,3.20
2022-12-08T15:44:53.966Z,3.20
2022-12-08T15:47:27.635Z,3.19
2022-12-08T15:49:54.357Z,3.18
2022-12-08T15:52:24.050Z,3.17
2022-12-08T15:54:51.345Z,3.15
2022-12-08T15:57:53.420Z,3.18
2022-12-08T16:00:50.507Z,3.14
2022-12-08T16:03:59.892Z,3.13
2022-12-08T16:09:12.236Z,3.13
2022-12-08T16:12:07.588Z,3.07
2022-12-08T16:17:21.699Z,3.05
2022-12-08T16:19:48.636Z,3.06
2022-12-08T16:25:22.387Z,3.04
2022-12-08T16:30:43.192Z,3.01
2022-12-08T16:33:18.955Z,2.97
2022-12-08T16:35:45.850Z,3.00
2022-12-08T16:38:17.787Z,3.00
2022-12-08T16:41:06.870Z,2.99
2022-12-08T16:43:34.359Z,2.97
2022-12-08T16:46:02.746Z,2.96
2022-12-08T16:48:30.608Z,2.92
2022-12-08T16:51:01.838Z,2.96
2022-12-08T16:53:28.799Z,2.95
2022-12-08T16:55:58.570Z,2.96
2022-12-08T16:58:25.314Z,2.96
2022-12-08T17:01:01.419Z,2.94
2022-12-08T17:03:32.812Z,2.91
2022-12-08T17:06:06.828Z,2.93
2022-12-08T17:08:41.863Z,2.91
2022-12-08T17:11:27.976Z,2.90
2022-12-08T17:14:00.434Z,2.95
2022-12-08T17:16:27.359Z,2.95
2022-12-08T17:19:34.693Z,2.95
2022-12-08T17:23:37.388Z,2.92
2022-12-08T17:27:14.714Z,2.88
2022-12-08T17:30:50.697Z,2.88
2022-12-08T17:33:58.438Z,2.95
2022-12-08T17:36:57.218Z,2.95
2022-12-08T17:39:46.921Z,2.93
2022-12-08T17:50:15.984Z,2.82
2022-12-08T17:53:02.415Z,2.88
2022-12-08T17:55:42.843Z,2.85
2022-12-08T17:58:51.344Z,2.92
2022-12-08T18:01:49.452Z,2.96
2022-12-08T18:04:49.227Z,3.01
2022-12-08T18:07:25.252Z,2.97
2022-12-08T18:10:19.129Z,2.94
2022-12-08T18:12:54.130Z,2.87
2022-12-08T18:19:20.099Z,2.82
2022-12-08T18:26:52.599Z,2.85
2022-12-08T18:29:34.849Z,2.76
2022-12-08T18:33:16.243Z,2.79
2022-12-08T18:40:14.708Z,2.74
2022-12-08T18:46:34.628Z,2.70
2022-12-08T18:49:04.750Z,2.74
2022-12-08T18:51:49.341Z,2.78
2022-12-08T18:54:58.169Z,2.78
2022-12-08T18:58:16.836Z,2.76
2022-12-08T19:04:39.780Z,2.69
2022-12-08T19:07:20.004Z,2.69
2022-12-08T19:09:53.360Z,2.74
2022-12-08T19:12:40.242Z,2.69
2022-12-08T19:15:30.793Z,2.60
2022-12-08T19:18:11.400Z,2.61
2022-12-08T19:20:48.625Z,2.64
2022-12-08T19:23:33.076Z,2.65
2022-12-08T19:26:05.435Z,2.60
2022-12-08T19:28:42.183Z,2.56
2022-12-08T19:31:27.465Z,2.58
2022-12-08T19:34:01.662Z,2.57
2022-12-08T19:36:45.890Z,2.57
2022-12-08T19:39:40.634Z,2.59
2022-12-08T19:42:40.684Z,2.59
2022-12-08T19:45:30.583Z,2.58
2022-12-08T19:48:06.822Z,2.58
2022-12-08T19:50:41.696Z,2.58
2022-12-08T19:53:52.679Z,2.55
2022-12-08T19:56:22.718Z,2.53
2022-12-08T19:59:10.420Z,2.61
2022-12-08T20:01:44.090Z,2.58
2022-12-08T20:04:36.293Z,2.55
2022-12-08T20:07:26.128Z,2.49
2022-12-08T20:10:57.438Z,2.49
2022-12-08T20:14:48.254Z,2.49
2022-12-08T20:21:25.458Z,2.39
2022-12-08T20:25:00.797Z,2.34
2022-12-08T20:28:09.826Z,2.42
2022-12-08T20:30:44.207Z,2.29
2022-12-08T20:33:21.115Z,2.31
2022-12-08T20:36:25.929Z,2.30
2022-12-08T20:38:54.443Z,2.19
2022-12-08T20:41:26.696Z,2.02
2022-12-08T20:43:54.138Z,1.93
2022-12-08T20:46:21.373Z,1.92
2022-12-08T20:48:48.424Z,1.92
2022-12-08T20:51:19.747Z,1.94
2022-12-08T20:56:48.516Z,1.87
2022-12-08T20:59:18.237Z,1.96
2022-12-08T21:01:54.158Z,1.91
2022-12-08T21:04:24.187Z,1.89
2022-12-08T21:06:51.010Z,1.95
2022-12-08T21:09:18.772Z,1.88
2022-12-08T21:11:45.709Z,1.85
2022-12-08T21:14:12.570Z,1.80
2022-12-08T21:16:40.156Z,1.85
2022-12-08T21:19:07.549Z,1.76
2022-12-08T21:21:35.512Z,1.69
2022-12-08T21:24:03.556Z,1.72
2022-12-08T21:26:31.230Z,1.69
2022-12-08T21:29:01.439Z,1.70
2022-12-08T21:31:31.529Z,1.67
2022-12-08T21:34:03.182Z,1.64
2022-12-08T21:36:34.767Z,1.55
2022-12-08T21:39:02.827Z,1.52
2022-12-08T21:41:49.085Z,1.51
2022-12-08T21:44:20.163Z,1.48
2022-12-08T21:46:55.276Z,1.49
2022-12-08T21:49:30.582Z,1.49
2022-12-08T21:51:58.844Z,1.45
2022-12-08T21:54:25.973Z,1.39
2022-12-08T21:56:53.508Z,1.29
2022-12-08T21:59:20.836Z,1.32
2022-12-08T22:01:48.051Z,1.27
2022-12-08T22:04:27.713Z,1.22
2022-12-08T22:06:58.412Z,1.08
2022-12-08T22:09:30.566Z,1.04
2022-12-08T22:11:57.554Z,1.06
2022-12-08T22:14:27.762Z,1.01
2022-12-08T22:16:54.933Z,1.01
2022-12-08T22:19:24.483Z,0.98
2022-12-08T22:24:36.351Z,0.81
2022-12-08T22:27:06.420Z,0.73
2022-12-08T22:29:33.872Z,0.70
2022-12-08T22:32:00.897Z,0.56
2022-12-08T22:34:28.194Z,0.55
2022-12-08T22:36:57.717Z,0.59
2022-12-08T22:39:25.087Z,0.48
2022-12-08T22:41:52.597Z,0.43
2022-12-08T22:44:19.757Z,0.47
2022-12-08T22:46:46.805Z,0.38
2022-12-08T22:49:13.998Z,0.41
2022-12-08T22:51:41.233Z,0.35
2022-12-08T22:54:10.683Z,0.28
2022-12-08T22:56:38.005Z,0.31
2022-12-08T22:59:04.582Z,0.31
2022-12-08T23:01:32.832Z,0.19
2022-12-08T23:04:00.994Z,0.07
2022-12-08T23:06:29.199Z,0.16
2022-12-08T23:08:56.888Z,0.12
2022-12-08T23:11:27.688Z,0.01
2022-12-08T23:13:56.288Z,-0.03
2022-12-08T23:16:23.200Z,-0.06
2022-12-08T23:18:50.021Z,-0.10
2022-12-08T23:21:19.035Z,-0.07
2022-12-08T23:23:46.653Z,-0.02
2022-12-08T23:26:26.710Z,-0.02
2022-12-08T23:28:54.167Z,0.04
2022-12-08T23:31:21.526Z,0.03
2022-12-08T23:33:48.738Z,-0.12
2022-12-08T23:36:19.946Z,-0.19
2022-12-08T23:38:47.294Z,-0.18
2022-12-08T23:41:15.516Z,-0.18
2022-12-08T23:43:50.690Z,-0.18
2022-12-08T23:46:19.867Z,-0.21
2022-12-08T23:48:46.840Z,-0.07
2022-12-08T23:51:14.056Z,-0.04
2022-12-08T23:53:41.138Z,-0.06
2022-12-08T23:56:10.620Z,-0.10
